Time;durP1;ratioP1;P1;durP2;ratioP2;P2;SDS_P1;SDS_P2;PMS_P1;PMS_P2;Temp;Humidity;BMP_temperature;BMP_pressure;BME280_temperature;BME280_humidity;BME280_pressure;Samples;Min_cycle;Max_cycle;Signal;HPM_P1;HPM_P2
2023/06/28 00:00:18;;;;;;;3.60;1.73;;;17.00;99.90;;;;;;5094854;28;20199;-42
2023/06/28 00:02:44;;;;;;;3.17;1.33;;;17.00;99.90;;;;;;5094387;28;20311;-43
2023/06/28 00:05:12;;;;;;;2.10;1.20;;;17.00;99.90;;;;;;5094818;28;20206;-43
2023/06/28 00:07:38;;;;;;;4.23;1.60;;;17.00;99.90;;;;;;5094354;28;20195;-39
2023/06/28 00:10:05;;;;;;;5.53;1.40;;;16.90;99.90;;;;;;5094090;28;20542;-42
2023/06/28 00:12:32;;;;;;;2.13;1.50;;;16.90;99.90;;;;;;5094626;28;20658;-42
2023/06/28 00:14:58;;;;;;;2.43;1.67;;;16.90;99.90;;;;;;5094391;28;20277;-42
2023/06/28 00:17:27;;;;;;;7.17;1.57;;;16.90;99.90;;;;;;5094011;28;20185;-42
2023/06/28 00:20:06;;;;;;;6.20;1.83;;;16.90;99.90;;;;;;5093869;28;20203;-41
2023/06/28 00:22:31;;;;;;;2.37;1.80;;;16.90;99.90;;;;;;5094126;28;20570;-41
2023/06/28 00:24:59;;;;;;;4.17;1.90;;;16.80;99.90;;;;;;5093693;28;20199;-42
2023/06/28 00:27:25;;;;;;;4.53;1.90;;;16.80;99.90;;;;;;5093778;28;20178;-42
2023/06/28 00:29:51;;;;;;;3.90;2.00;;;16.80;99.90;;;;;;5093893;28;20187;-41
2023/06/28 00:32:17;;;;;;;6.43;2.13;;;16.80;99.90;;;;;;5093651;28;20179;-42
2023/06/28 00:34:42;;;;;;;7.00;2.40;;;16.80;99.90;;;;;;5093630;28;20578;-41
2023/06/28 00:37:08;;;;;;;9.07;2.23;;;16.70;99.90;;;;;;5093669;28;20187;-43
2023/06/28 00:39:34;;;;;;;3.57;2.47;;;16.70;99.90;;;;;;5075477;28;20202;-41
2023/06/28 00:42:01;;;;;;;5.00;2.53;;;16.70;99.90;;;;;;5094211;28;20674;-44
2023/06/28 00:44:27;;;;;;;6.70;2.77;;;16.60;99.90;;;;;;5093431;28;20281;-41
2023/06/28 00:46:54;;;;;;;4.20;2.20;;;16.60;99.90;;;;;;5093856;28;20319;-42
2023/06/28 00:49:24;;;;;;;5.40;2.40;;;16.50;99.90;;;;;;5093890;28;20208;-42
2023/06/28 00:51:50;;;;;;;5.30;2.53;;;16.60;99.90;;;;;;5093801;28;20228;-43
2023/06/28 00:54:18;;;;;;;6.73;3.87;;;16.50;99.90;;;;;;5093696;28;20199;-40
2023/06/28 00:56:45;;;;;;;7.03;3.80;;;16.50;99.90;;;;;;5096245;28;20232;-40
2023/06/28 00:59:11;;;;;;;5.67;3.27;;;16.50;99.90;;;;;;5097615;28;20234;-42
2023/06/28 01:01:37;;;;;;;5.53;3.00;;;16.40;99.90;;;;;;5097825;28;20183;-41
2023/06/28 01:04:05;;;;;;;6.10;3.50;;;16.40;99.90;;;;;;5097794;28;20580;-41
2023/06/28 01:06:35;;;;;;;10.13;4.77;;;16.40;99.90;;;;;;5097806;28;20684;-41
2023/06/28 01:09:02;;;;;;;9.47;4.30;;;16.40;99.90;;;;;;5097622;28;20174;-42
2023/06/28 01:11:28;;;;;;;5.27;4.03;;;16.40;99.90;;;;;;5097563;28;20291;-41
2023/06/28 01:13:54;;;;;;;6.87;3.70;;;16.30;99.90;;;;;;5097375;28;20183;-41
2023/06/28 01:16:19;;;;;;;5.50;3.83;;;16.30;99.90;;;;;;5097570;28;20265;-42
2023/06/28 01:18:46;;;;;;;11.17;5.97;;;16.30;99.90;;;;;;5097404;28;20630;-41
2023/06/28 01:21:14;;;;;;;12.43;5.73;;;16.20;99.90;;;;;;5097601;28;20183;-42
2023/06/28 01:23:40;;;;;;;10.00;5.93;;;16.20;99.90;;;;;;5097263;28;20647;-43
2023/06/28 01:26:07;;;;;;;8.93;5.37;;;16.10;99.90;;;;;;5097242;28;20266;-43
2023/06/28 01:28:34;;;;;;;8.07;5.23;;;16.10;99.90;;;;;;5097943;28;20171;-43
2023/06/28 01:30:59;;;;;;;12.63;6.67;;;16.10;99.90;;;;;;5097424;28;20198;-42
2023/06/28 01:33:26;;;;;;;10.43;5.50;;;16.10;99.90;;;;;;5097254;28;20550;-42
2023/06/28 01:35:52;;;;;;;6.83;4.70;;;16.10;99.90;;;;;;5097302;28;20207;-40
2023/06/28 01:38:19;;;;;;;8.40;4.40;;;16.00;99.90;;;;;;5096820;28;20190;-42
2023/06/28 01:40:48;;;;;;;7.97;4.30;;;16.00;99.90;;;;;;5097070;28;20228;-42
2023/06/28 01:43:14;;;;;;;6.90;3.13;;;16.00;99.90;;;;;;5096794;28;20190;-42
2023/06/28 01:45:39;;;;;;;4.77;3.33;;;16.00;99.90;;;;;;5096652;28;20198;-42
2023/06/28 01:48:05;;;;;;;8.10;3.73;;;15.90;99.90;;;;;;5096603;28;20186;-43
2023/06/28 01:50:31;;;;;;;8.50;4.17;;;15.90;99.90;;;;;;5096703;28;20666;-43
2023/06/28 01:52:59;;;;;;;5.50;3.47;;;15.90;99.90;;;;;;5097015;28;20174;-41
2023/06/28 01:55:25;;;;;;;10.07;3.73;;;15.90;99.90;;;;;;5096790;28;20567;-42
2023/06/28 01:57:51;;;;;;;8.03;4.30;;;15.90;99.90;;;;;;5096324;28;20195;-43
2023/06/28 02:00:17;;;;;;;3.70;3.30;;;15.90;99.90;;;;;;5096683;28;20195;-41
2023/06/28 02:02:42;;;;;;;8.63;3.77;;;15.90;99.90;;;;;;5078252;28;20178;-42
2023/06/28 02:05:08;;;;;;;5.30;3.80;;;15.90;99.90;;;;;;5096437;28;20285;-42
2023/06/28 02:07:34;;;;;;;5.13;3.50;;;15.90;99.90;;;;;;5095547;28;20160;-42
2023/06/28 02:09:59;;;;;;;5.40;3.40;;;15.90;99.90;;;;;;5096319;28;20303;-40
2023/06/28 02:12:25;;;;;;;4.47;3.30;;;15.90;99.90;;;;;;5096548;28;20220;-41
2023/06/28 02:14:52;;;;;;;4.50;3.33;;;15.80;99.90;;;;;;5096253;28;20203;-42
2023/06/28 02:17:20;;;;;;;5.00;3.33;;;15.80;99.90;;;;;;5096401;28;20237;-40
2023/06/28 02:19:46;;;;;;;4.77;2.90;;;15.80;99.90;;;;;;5096282;28;20207;-41
2023/06/28 02:22:12;;;;;;;6.70;3.43;;;15.80;99.90;;;;;;5096005;28;20171;-41
2023/06/28 02:24:38;;;;;;;6.77;3.10;;;15.80;99.90;;;;;;5096099;28;20221;-40
2023/06/28 02:27:04;;;;;;;4.70;3.13;;;15.80;99.90;;;;;;5095993;28;20178;-41
2023/06/28 02:29:30;;;;;;;6.27;3.23;;;15.80;99.90;;;;;;5077792;28;20186;-43
2023/06/28 02:31:56;;;;;;;5.97;3.50;;;15.80;99.90;;;;;;5096098;28;20581;-41
2023/06/28 02:34:22;;;;;;;9.73;3.77;;;15.80;99.90;;;;;;5096018;28;20207;-43
2023/06/28 02:36:48;;;;;;;6.40;3.73;;;15.80;99.90;;;;;;5096131;28;20183;-44
2023/06/28 02:39:13;;;;;;;6.37;3.93;;;15.80;99.90;;;;;;5095691;28;20260;-43
2023/06/28 02:41:39;;;;;;;7.50;4.50;;;15.80;99.90;;;;;;5095935;28;20255;-43
2023/06/28 02:44:04;;;;;;;9.97;5.83;;;15.80;99.90;;;;;;5095698;28;20203;-42
2023/06/28 02:46:30;;;;;;;13.43;8.47;;;15.80;99.90;;;;;;5096455;28;20178;-42
2023/06/28 02:48:55;;;;;;;22.37;10.77;;;15.80;99.90;;;;;;5096070;28;20236;-40
2023/06/28 02:51:21;;;;;;;16.47;10.33;;;15.80;99.90;;;;;;5095543;28;20183;-43
2023/06/28 02:53:46;;;;;;;15.27;10.60;;;15.90;99.90;;;;;;5095382;28;20266;-42
2023/06/28 02:56:15;;;;;;;19.03;8.43;;;15.80;99.90;;;;;;5095576;28;20256;-40
2023/06/28 02:58:43;;;;;;;18.70;6.47;;;15.90;99.90;;;;;;5095649;28;20206;-41
2023/06/28 03:01:09;;;;;;;11.30;3.37;;;15.90;99.90;;;;;;5095339;28;20178;-40
2023/06/28 03:03:38;;;;;;;9.37;2.87;;;15.90;99.90;;;;;;5095506;28;20186;-42
2023/06/28 03:06:04;;;;;;;10.93;2.73;;;15.90;99.90;;;;;;5095123;28;20332;-41
2023/06/28 03:08:30;;;;;;;10.83;2.50;;;15.90;99.90;;;;;;5095331;28;20526;-40
2023/06/28 03:10:56;;;;;;;11.27;2.37;;;15.90;99.90;;;;;;5095191;28;20316;-41
2023/06/28 03:13:21;;;;;;;6.87;2.53;;;15.80;99.90;;;;;;5095100;28;20635;-42
2023/06/28 03:15:47;;;;;;;9.57;2.37;;;15.90;99.90;;;;;;5095218;28;20248;-43
2023/06/28 03:18:13;;;;;;;9.07;2.30;;;15.90;99.90;;;;;;5094615;28;20228;-43
2023/06/28 03:20:38;;;;;;;6.37;2.40;;;15.90;99.90;;;;;;5095191;28;20178;-42
2023/06/28 03:23:04;;;;;;;3.17;1.93;;;15.90;99.90;;;;;;5094935;28;20359;-43
2023/06/28 03:25:30;;;;;;;5.07;2.00;;;15.90;99.90;;;;;;5094772;28;20649;-43
2023/06/28 03:27:56;;;;;;;6.50;1.93;;;15.90;99.90;;;;;;5076593;28;20579;-43
2023/06/28 03:30:22;;;;;;;10.37;2.23;;;15.90;99.90;;;;;;5095031;28;20232;-42
2023/06/28 03:32:48;;;;;;;5.03;2.20;;;15.90;99.90;;;;;;5094853;28;20187;-41
2023/06/28 03:35:13;;;;;;;6.97;2.13;;;15.90;99.90;;;;;;5094825;28;20203;-42
2023/06/28 03:37:39;;;;;;;10.80;2.53;;;15.90;99.90;;;;;;5094824;28;20183;-42
2023/06/28 03:40:05;;;;;;;10.60;2.33;;;15.90;99.90;;;;;;5094496;28;20198;-43
2023/06/28 03:42:31;;;;;;;10.10;2.33;;;16.00;99.90;;;;;;5094780;28;20180;-42
2023/06/28 03:44:57;;;;;;;7.73;2.67;;;15.90;99.90;;;;;;5094418;28;20202;-40
2023/06/28 03:47:22;;;;;;;5.90;2.20;;;15.90;99.90;;;;;;5094377;28;20186;-43
2023/06/28 03:49:48;;;;;;;9.33;2.70;;;16.00;99.90;;;;;;5094517;28;20538;-42
2023/06/28 03:52:14;;;;;;;10.20;2.40;;;16.00;99.90;;;;;;5094591;28;20193;-41
2023/06/28 03:54:39;;;;;;;7.20;2.33;;;15.90;99.90;;;;;;5094217;28;20222;-41
2023/06/28 03:57:05;;;;;;;7.93;2.83;;;16.00;99.90;;;;;;5094357;28;20651;-43
2023/06/28 03:59:31;;;;;;;6.63;2.17;;;15.90;99.90;;;;;;5076896;28;20222;-43
2023/06/28 04:01:57;;;;;;;7.27;2.60;;;15.90;99.90;;;;;;5076099;28;20179;-42
2023/06/28 04:04:22;;;;;;;12.13;2.43;;;15.90;99.90;;;;;;5094355;28;20274;-43
2023/06/28 04:06:48;;;;;;;14.13;2.63;;;15.90;99.90;;;;;;5076148;28;20603;-43
2023/06/28 04:09:15;;;;;;;13.70;2.90;;;15.90;99.90;;;;;;5094172;28;20209;-43
2023/06/28 04:11:41;;;;;;;18.33;2.93;;;15.90;99.90;;;;;;5094287;28;20269;-43
2023/06/28 04:14:06;;;;;;;11.67;2.80;;;15.90;99.90;;;;;;5094398;28;20289;-44
2023/06/28 04:16:32;;;;;;;14.37;2.40;;;15.90;99.90;;;;;;5094345;28;20174;-44
2023/06/28 04:18:59;;;;;;;10.23;2.63;;;15.90;99.90;;;;;;5093787;28;20207;-43
2023/06/28 04:21:26;;;;;;;7.77;2.70;;;16.00;99.90;;;;;;5094117;28;20175;-43
2023/06/28 04:23:51;;;;;;;7.27;2.43;;;16.00;99.90;;;;;;5094079;28;20179;-42
2023/06/28 04:26:18;;;;;;;8.10;2.30;;;16.00;99.90;;;;;;5094299;28;20261;-42
2023/06/28 04:28:43;;;;;;;4.80;1.90;;;16.00;99.90;;;;;;5094674;28;20171;-42
2023/06/28 04:31:09;;;;;;;6.20;2.20;;;16.10;99.90;;;;;;5094650;28;20198;-43
2023/06/28 04:33:35;;;;;;;9.70;2.43;;;16.10;99.90;;;;;;5094388;28;20183;-41
2023/06/28 04:36:01;;;;;;;8.37;2.30;;;16.10;99.90;;;;;;5094012;28;20212;-41
2023/06/28 04:38:27;;;;;;;5.87;2.33;;;16.10;99.90;;;;;;5094100;28;20722;-41
2023/06/28 04:40:55;;;;;;;7.63;2.80;;;16.10;99.90;;;;;;5093746;28;20262;-41
2023/06/28 04:43:20;;;;;;;3.67;2.30;;;16.10;99.90;;;;;;5093741;28;20171;-43
2023/06/28 04:45:48;;;;;;;5.50;2.27;;;16.10;99.90;;;;;;5093774;28;20205;-43
2023/06/28 04:48:14;;;;;;;10.47;2.60;;;16.10;99.90;;;;;;5093392;28;20253;-42
2023/06/28 04:50:39;;;;;;;8.17;2.57;;;16.10;99.90;;;;;;5093401;28;20196;-41
2023/06/28 04:53:05;;;;;;;10.40;2.60;;;16.10;99.90;;;;;;5093295;28;20258;-40
2023/06/28 04:55:34;;;;;;;16.83;3.40;;;16.10;99.90;;;;;;5093425;28;20544;-41
2023/06/28 04:58:04;;;;;;;11.37;2.97;;;16.10;99.90;;;;;;5093152;28;20574;-42
2023/06/28 05:00:30;;;;;;;9.47;3.03;;;16.10;99.90;;;;;;5093216;28;20191;-41
2023/06/28 05:02:57;;;;;;;8.50;2.50;;;16.10;99.90;;;;;;5093527;28;20562;-42
2023/06/28 05:05:24;;;;;;;14.57;2.87;;;16.20;99.90;;;;;;5093448;28;20290;-42
2023/06/28 05:07:52;;;;;;;12.17;2.50;;;16.20;99.90;;;;;;5093567;28;20194;-41
2023/06/28 05:10:18;;;;;;;12.37;2.90;;;16.20;99.90;;;;;;5093464;28;20190;-41
2023/06/28 05:12:43;;;;;;;9.13;2.27;;;16.20;99.90;;;;;;5093441;28;20183;-42
2023/06/28 05:15:09;;;;;;;5.70;2.30;;;16.20;99.90;;;;;;5093058;28;20197;-42
2023/06/28 05:17:35;;;;;;;9.53;2.80;;;16.20;99.90;;;;;;5093096;28;20195;-43
2023/06/28 05:20:01;;;;;;;8.93;2.50;;;16.30;99.90;;;;;;5093218;28;20202;-42
2023/06/28 05:22:27;;;;;;;12.27;2.60;;;16.30;99.90;;;;;;5093187;28;20202;-41
2023/06/28 05:24:53;;;;;;;10.50;2.83;;;16.30;99.90;;;;;;5093213;28;20198;-41
2023/06/28 05:27:20;;;;;;;13.00;2.70;;;16.30;99.90;;;;;;5093278;28;20640;-42
2023/06/28 05:29:45;;;;;;;11.57;2.47;;;16.30;99.90;;;;;;5093304;28;20236;-42
2023/06/28 05:32:13;;;;;;;11.60;3.27;;;16.30;99.90;;;;;;5093002;28;20627;-41
2023/06/28 05:34:39;;;;;;;16.33;3.33;;;16.30;99.90;;;;;;5093277;28;20569;-42
2023/06/28 05:37:05;;;;;;;9.30;2.97;;;16.30;99.90;;;;;;5093012;28;20186;-43
2023/06/28 05:39:30;;;;;;;15.00;3.07;;;16.30;99.90;;;;;;5092887;28;20199;-43
2023/06/28 05:41:56;;;;;;;12.07;2.70;;;16.30;99.90;;;;;;5094592;28;20175;-42
2023/06/28 05:44:22;;;;;;;9.43;2.80;;;16.40;99.90;;;;;;5096940;28;20191;-43
2023/06/28 05:46:47;;;;;;;15.67;2.83;;;16.40;99.90;;;;;;5097232;28;20526;-42
2023/06/28 05:49:13;;;;;;;10.33;2.40;;;16.40;99.90;;;;;;5096780;28;20202;-41
2023/06/28 05:51:38;;;;;;;12.73;2.80;;;16.40;99.90;;;;;;5096642;28;20175;-42
2023/06/28 05:54:04;;;;;;;9.33;2.40;;;16.40;99.90;;;;;;5096644;28;20674;-42
2023/06/28 05:56:30;;;;;;;6.90;2.53;;;16.40;99.90;;;;;;5096465;28;20651;-43
2023/06/28 05:58:56;;;;;;;10.97;2.60;;;16.50;99.90;;;;;;5096824;28;20240;-40
2023/06/28 06:01:25;;;;;;;8.30;2.77;;;16.50;99.90;;;;;;5096768;28;20224;-42
2023/06/28 06:03:50;;;;;;;14.03;3.20;;;16.50;99.90;;;;;;5096679;28;20183;-42
2023/06/28 06:06:17;;;;;;;7.93;3.00;;;16.60;99.90;;;;;;5097230;28;20178;-44
2023/06/28 06:08:43;;;;;;;7.83;2.10;;;16.60;99.90;;;;;;5096536;28;20544;-43
2023/06/28 06:11:08;;;;;;;5.77;2.30;;;16.70;99.90;;;;;;5096507;28;20262;-43
2023/06/28 06:13:34;;;;;;;10.63;2.30;;;16.70;99.90;;;;;;5096765;28;20202;-43
2023/06/28 06:16:00;;;;;;;8.10;1.63;;;16.80;99.90;;;;;;5096481;28;20534;-41
2023/06/28 06:18:25;;;;;;;6.57;2.43;;;16.80;99.90;;;;;;5096874;28;20187;-41
2023/06/28 06:20:51;;;;;;;11.53;2.40;;;16.80;99.90;;;;;;5096431;28;20171;-41
2023/06/28 06:23:18;;;;;;;8.07;2.80;;;16.80;99.90;;;;;;5096088;28;20167;-42
2023/06/28 06:25:43;;;;;;;6.70;1.90;;;16.80;99.90;;;;;;5097038;28;20252;-42
2023/06/28 06:28:09;;;;;;;8.47;2.70;;;16.80;99.90;;;;;;5095978;28;20179;-42
2023/06/28 06:30:35;;;;;;;6.03;2.00;;;16.80;99.90;;;;;;5096586;28;20258;-42
2023/06/28 06:33:01;;;;;;;8.43;2.43;;;16.80;99.90;;;;;;5095862;28;20661;-42
2023/06/28 06:35:27;;;;;;;6.93;2.00;;;16.90;99.90;;;;;;5096006;28;20202;-42
2023/06/28 06:37:53;;;;;;;6.57;2.20;;;16.90;99.90;;;;;;5096008;28;20187;-40
2023/06/28 06:40:19;;;;;;;9.77;2.20;;;16.90;99.90;;;;;;5095611;28;20237;-42
2023/06/28 06:42:45;;;;;;;8.53;2.50;;;16.90;99.90;;;;;;5095926;28;20191;-41
2023/06/28 06:45:16;;;;;;;5.50;2.20;;;16.90;99.90;;;;;;5095842;28;20248;-41
2023/06/28 06:47:43;;;;;;;9.10;3.07;;;17.00;99.90;;;;;;5095547;28;20160;-43
2023/06/28 06:50:09;;;;;;;7.80;2.47;;;17.00;99.90;;;;;;5095760;28;20232;-43
2023/06/28 06:52:37;;;;;;;6.87;2.17;;;17.00;99.90;;;;;;5095744;28;20307;-42
2023/06/28 06:55:03;;;;;;;7.00;2.40;;;17.00;99.90;;;;;;5094900;28;20202;-43
2023/06/28 06:57:28;;;;;;;5.87;2.10;;;17.00;99.90;;;;;;5095106;28;20194;-41
2023/06/28 06:59:54;;;;;;;4.77;2.23;;;17.10;99.90;;;;;;5095797;28;20199;-42
2023/06/28 07:02:21;;;;;;;6.97;2.67;;;17.10;99.90;;;;;;5077284;28;20270;-42
2023/06/28 07:04:46;;;;;;;6.20;2.20;;;17.10;99.90;;;;;;5095484;28;20203;-42
2023/06/28 07:07:12;;;;;;;4.73;2.10;;;17.10;99.90;;;;;;5095731;28;20181;-42
2023/06/28 07:09:37;;;;;;;7.77;2.33;;;17.10;99.90;;;;;;5095345;28;20175;-42
2023/06/28 07:12:03;;;;;;;6.53;1.90;;;17.20;99.90;;;;;;5095539;28;20228;-42
2023/06/28 07:14:29;;;;;;;4.80;2.10;;;17.20;99.90;;;;;;5094968;28;20558;-42
2023/06/28 07:16:54;;;;;;;7.10;2.20;;;17.20;99.90;;;;;;5095209;28;20194;-42
2023/06/28 07:19:20;;;;;;;6.10;2.10;;;17.30;99.90;;;;;;5095152;28;20202;-47
2023/06/28 07:21:45;;;;;;;5.40;2.67;;;17.30;99.90;;;;;;5095302;28;20220;-46
2023/06/28 07:24:11;;;;;;;12.67;2.60;;;17.40;99.90;;;;;;5094916;28;20268;-47
2023/06/28 07:26:37;;;;;;;5.67;2.37;;;17.40;99.90;;;;;;5095368;28;20206;-45
2023/06/28 07:29:02;;;;;;;4.33;1.93;;;17.50;99.90;;;;;;5095007;28;20647;-47
2023/06/28 07:31:28;;;;;;;6.40;2.37;;;17.50;99.90;;;;;;5095002;28;20183;-47
2023/06/28 07:33:54;;;;;;;4.87;2.00;;;17.60;99.90;;;;;;5094864;28;20206;-47
2023/06/28 07:36:19;;;;;;;5.77;2.20;;;17.60;99.90;;;;;;5076518;28;20674;-46
2023/06/28 07:38:45;;;;;;;5.70;2.47;;;17.70;99.90;;;;;;5094700;28;20203;-46
2023/06/28 07:41:10;;;;;;;9.10;3.07;;;17.70;99.90;;;;;;5094569;28;20182;-47
2023/06/28 07:43:36;;;;;;;7.60;2.30;;;17.80;99.90;;;;;;5094677;28;20179;-47
2023/06/28 07:46:03;;;;;;;6.30;2.80;;;17.80;99.90;;;;;;5094398;28;20198;-47
2023/06/28 07:48:29;;;;;;;6.30;2.20;;;17.80;99.90;;;;;;5094674;28;20171;-46
2023/06/28 07:50:55;;;;;;;5.30;2.20;;;17.80;99.90;;;;;;5094660;28;20197;-48
2023/06/28 07:53:21;;;;;;;7.33;2.27;;;17.90;99.90;;;;;;5094555;28;20175;-46
2023/06/28 07:55:46;;;;;;;5.73;2.60;;;17.90;99.90;;;;;;5094185;28;20678;-48
2023/06/28 07:58:12;;;;;;;6.43;2.63;;;18.00;99.90;;;;;;5094235;28;20206;-48
2023/06/28 08:00:37;;;;;;;7.50;2.87;;;18.00;99.90;;;;;;5094398;28;20194;-49
2023/06/28 08:03:03;;;;;;;7.17;2.40;;;18.00;99.90;;;;;;5094111;28;20171;-47
2023/06/28 08:05:31;;;;;;;9.37;2.47;;;18.00;99.90;;;;;;5093207;28;20282;-46
2023/06/28 08:07:57;;;;;;;5.00;2.50;;;18.10;99.90;;;;;;5094077;28;20178;-47
2023/06/28 08:10:23;;;;;;;9.30;2.50;;;18.20;99.90;;;;;;5093940;28;20175;-48
2023/06/28 08:12:50;;;;;;;5.63;2.10;;;18.30;99.90;;;;;;5093962;28;20202;-49
2023/06/28 08:15:15;;;;;;;11.17;2.07;;;18.40;99.90;;;;;;5093863;28;20203;-48
2023/06/28 08:17:41;;;;;;;9.23;2.27;;;18.40;99.90;;;;;;5093918;28;20182;-46
2023/06/28 08:20:07;;;;;;;6.53;2.20;;;18.40;99.90;;;;;;5093997;28;20566;-47
2023/06/28 08:22:33;;;;;;;7.87;2.07;;;18.40;99.90;;;;;;5094397;28;20185;-48
2023/06/28 08:24:58;;;;;;;5.13;2.20;;;18.50;99.90;;;;;;5093746;28;20199;-48
2023/06/28 08:27:24;;;;;;;5.03;2.10;;;18.50;99.90;;;;;;5093978;28;20186;-46
2023/06/28 08:29:49;;;;;;;5.33;2.23;;;18.60;99.90;;;;;;5093689;28;20179;-46
2023/06/28 08:32:15;;;;;;;5.67;1.90;;;18.60;99.90;;;;;;5093672;28;20232;-47
2023/06/28 08:34:40;;;;;;;5.97;2.37;;;18.60;99.90;;;;;;5093604;28;20625;-48
2023/06/28 08:37:06;;;;;;;6.90;2.63;;;18.60;99.90;;;;;;5093885;28;20228;-47
2023/06/28 08:39:32;;;;;;;7.23;2.30;;;18.70;99.90;;;;;;5093696;28;20205;-48
2023/06/28 08:42:00;;;;;;;7.40;2.50;;;18.70;99.90;;;;;;5093545;28;20202;-48
2023/06/28 08:44:28;;;;;;;5.57;2.37;;;18.80;99.90;;;;;;5093434;28;20190;-47
2023/06/28 08:46:55;;;;;;;4.57;2.23;;;18.80;99.90;;;;;;5093754;28;20175;-47
2023/06/28 08:49:21;;;;;;;5.50;2.10;;;18.80;99.90;;;;;;5093412;28;20183;-46
2023/06/28 08:51:47;;;;;;;8.23;2.43;;;18.90;99.90;;;;;;5093437;28;20635;-48
2023/06/28 08:54:13;;;;;;;5.00;2.30;;;18.90;99.90;;;;;;5093324;28;20212;-48
2023/06/28 08:56:40;;;;;;;7.23;2.37;;;19.00;99.90;;;;;;5093471;28;20190;-47
2023/06/28 08:59:07;;;;;;;10.63;2.47;;;19.00;99.90;;;;;;5093636;28;20199;-48
2023/06/28 09:01:35;;;;;;;5.97;2.20;;;19.00;99.90;;;;;;5093634;28;20178;-47
2023/06/28 09:04:03;;;;;;;6.63;2.73;;;19.00;99.90;;;;;;5093285;28;20237;-48
2023/06/28 09:06:29;;;;;;;5.50;2.33;;;19.10;99.90;;;;;;5093557;28;20194;-47
2023/06/28 09:08:55;;;;;;;7.87;2.50;;;19.20;99.90;;;;;;5093472;28;20650;-48
2023/06/28 09:11:21;;;;;;;4.20;1.90;;;19.20;99.90;;;;;;5093301;28;20633;-48
2023/06/28 09:13:47;;;;;;;5.43;2.17;;;19.30;99.90;;;;;;5093208;28;20175;-47
2023/06/28 09:16:14;;;;;;;6.80;2.10;;;19.40;99.90;;;;;;5093451;28;20179;-48
2023/06/28 09:18:39;;;;;;;5.53;2.30;;;19.50;99.90;;;;;;5097484;28;20254;-49
2023/06/28 09:21:05;;;;;;;8.07;2.30;;;19.60;99.90;;;;;;5097261;28;20171;-48
2023/06/28 09:23:32;;;;;;;7.73;2.77;;;19.70;99.90;;;;;;5097231;28;20643;-48
2023/06/28 09:25:58;;;;;;;6.20;2.33;;;19.90;99.90;;;;;;5097075;28;20190;-47
2023/06/28 09:28:33;;;;;;;9.63;2.57;;;20.00;99.90;;;;;;5097066;28;20519;-47
2023/06/28 09:31:00;;;;;;;6.30;2.63;;;20.00;99.90;;;;;;5097347;28;20619;-47
2023/06/28 09:33:26;;;;;;;8.40;2.63;;;20.10;99.90;;;;;;5097021;28;20677;-49
2023/06/28 09:35:56;;;;;;;6.73;2.67;;;20.20;99.90;;;;;;5096911;28;20206;-49
2023/06/28 09:38:22;;;;;;;6.20;2.13;;;20.20;99.90;;;;;;5097167;28;20213;-47
2023/06/28 09:40:58;;;;;;;7.20;2.10;;;20.20;99.90;;;;;;5096836;28;20205;-47
2023/06/28 09:43:30;;;;;;;7.23;2.20;;;20.20;99.90;;;;;;5096821;28;20178;-48
2023/06/28 09:45:55;;;;;;;6.73;2.60;;;20.20;99.90;;;;;;5097022;28;20191;-47
2023/06/28 09:48:25;;;;;;;6.27;2.40;;;20.30;99.90;;;;;;5096736;28;20304;-49
2023/06/28 09:50:51;;;;;;;5.07;2.27;;;20.30;99.90;;;;;;5096547;28;20655;-47
2023/06/28 09:53:19;;;;;;;4.67;2.30;;;20.40;99.90;;;;;;5096632;28;20182;-48
2023/06/28 09:55:49;;;;;;;6.70;2.30;;;20.40;99.90;;;;;;5096746;28;20211;-47
2023/06/28 09:58:19;;;;;;;6.70;2.70;;;20.40;99.90;;;;;;5096435;28;20230;-48
2023/06/28 10:00:47;;;;;;;6.10;2.37;;;20.50;99.90;;;;;;5096727;28;20203;-48
2023/06/28 10:03:14;;;;;;;6.63;2.60;;;20.60;99.90;;;;;;5096661;28;20599;-46
2023/06/28 10:05:42;;;;;;;4.67;2.80;;;20.70;99.90;;;;;;5096448;28;20195;-48
2023/06/28 10:08:10;;;;;;;10.90;2.43;;;20.90;99.90;;;;;;5096415;28;20181;-48
2023/06/28 10:10:37;;;;;;;7.33;2.87;;;20.90;99.90;;;;;;5096687;28;20178;-47
2023/06/28 10:13:05;;;;;;;11.07;2.73;;;21.00;99.90;;;;;;5096662;28;20596;-48
2023/06/28 10:15:43;;;;;;;10.17;2.73;;;21.10;99.90;;;;;;5096248;28;20236;-48
2023/06/28 10:18:09;;;;;;;9.03;2.63;;;21.30;99.90;;;;;;5096635;28;20175;-49
2023/06/28 10:20:38;;;;;;;6.03;2.50;;;21.40;99.90;;;;;;5096810;28;20289;-46
2023/06/28 10:23:05;;;;;;;9.70;2.73;;;21.50;99.90;;;;;;5078400;28;20544;-46
2023/06/28 10:25:32;;;;;;;9.03;2.43;;;21.60;99.90;;;;;;5096272;28;20545;-46
2023/06/28 10:27:58;;;;;;;7.57;2.70;;;21.80;99.90;;;;;;5097094;28;20167;-44
2023/06/28 10:30:25;;;;;;;6.63;2.57;;;21.90;99.90;;;;;;5077864;28;20786;-48
2023/06/28 10:32:52;;;;;;;8.97;2.70;;;22.00;99.90;;;;;;5095891;28;20214;-45
2023/06/28 10:35:18;;;;;;;4.73;2.07;;;22.20;99.90;;;;;;5095916;28;20605;-47
2023/06/28 10:37:44;;;;;;;7.53;2.67;;;22.40;99.90;;;;;;5095732;28;20186;-46
2023/06/28 10:40:10;;;;;;;6.40;2.60;;;22.50;99.90;;;;;;5095849;28;20276;-46
2023/06/28 10:42:39;;;;;;;11.87;2.87;;;22.60;99.90;;;;;;5095656;28;20631;-47
2023/06/28 10:45:08;;;;;;;6.43;2.70;;;22.70;99.90;;;;;;5095939;28;20754;-48
2023/06/28 10:47:35;;;;;;;9.97;3.00;;;22.80;99.90;;;;;;5095925;28;20207;-47
2023/06/28 10:50:04;;;;;;;8.37;2.70;;;22.90;99.90;;;;;;5095688;28;20717;-45
2023/06/28 10:52:30;;;;;;;9.93;3.10;;;23.00;99.90;;;;;;5095803;28;20189;-45
2023/06/28 10:54:56;;;;;;;7.43;2.60;;;23.10;99.90;;;;;;5095702;28;20252;-46
2023/06/28 10:57:36;;;;;;;8.50;3.17;;;23.20;99.90;;;;;;5095290;28;20202;-46
2023/06/28 11:00:09;;;;;;;8.97;2.80;;;23.30;99.90;;;;;;5095821;28;20199;-47
2023/06/28 11:02:59;;;;;;;6.20;2.37;;;23.40;99.90;;;;;;5095700;28;20194;-46
2023/06/28 11:05:54;;;;;;;5.77;2.50;;;23.60;99.90;;;;;;5095534;28;20213;-46
2023/06/28 11:08:21;;;;;;;7.13;2.50;;;23.60;99.90;;;;;;5095480;28;20166;-47
2023/06/28 11:10:55;;;;;;;12.93;3.27;;;23.60;99.90;;;;;;5095449;28;20179;-46
2023/06/28 11:13:50;;;;;;;8.37;2.33;;;23.70;99.90;;;;;;5095386;28;20190;-47
2023/06/28 11:16:23;;;;;;;8.40;2.93;;;23.70;99.90;;;;;;5095253;28;20166;-48
2023/06/28 11:18:50;;;;;;;5.77;2.70;;;23.70;99.90;;;;;;5094934;28;20181;-48
2023/06/28 11:21:18;;;;;;;7.10;2.57;;;23.70;99.90;;;;;;5095252;28;20182;-46
2023/06/28 11:23:45;;;;;;;7.60;2.60;;;23.70;99.90;;;;;;5095163;28;20277;-47
2023/06/28 11:26:17;;;;;;;7.50;2.50;;;23.70;99.90;;;;;;5094992;28;20182;-46
2023/06/28 11:28:58;;;;;;;6.80;2.50;;;23.70;99.90;;;;;;5095285;28;20186;-46
2023/06/28 11:31:40;;;;;;;7.00;2.70;;;23.70;99.90;;;;;;5094940;28;20631;-47
2023/06/28 11:34:09;;;;;;;5.50;2.60;;;23.80;99.90;;;;;;5095283;28;20219;-46
2023/06/28 11:36:35;;;;;;;3.93;2.30;;;23.80;99.90;;;;;;5095053;28;20175;-44
2023/06/28 11:39:01;;;;;;;7.20;2.33;;;23.80;99.90;;;;;;5094744;28;20543;-48
2023/06/28 11:41:27;;;;;;;6.77;2.63;;;23.90;99.90;;;;;;5095132;28;20179;-47
2023/06/28 11:44:03;;;;;;;7.57;2.77;;;24.00;99.90;;;;;;5094460;28;20171;-46
2023/06/28 11:46:31;;;;;;;7.87;2.50;;;24.10;99.90;;;;;;5094839;28;20203;-48
2023/06/28 11:49:00;;;;;;;9.90;2.73;;;24.20;99.90;;;;;;5094564;28;20167;-47
2023/06/28 11:51:26;;;;;;;8.03;2.83;;;24.20;99.90;;;;;;5094642;28;20191;-47
2023/06/28 11:53:55;;;;;;;6.57;2.70;;;24.30;99.90;;;;;;5094643;28;20183;-45
2023/06/28 11:56:39;;;;;;;6.07;2.77;;;24.30;99.90;;;;;;5094263;28;20175;-47
2023/06/28 11:59:19;;;;;;;6.73;2.33;;;24.40;99.90;;;;;;5094472;28;20198;-47
2023/06/28 12:01:45;;;;;;;8.83;2.40;;;24.50;99.90;;;;;;5094497;28;20216;-47
2023/06/28 12:04:14;;;;;;;7.33;3.07;;;24.70;99.90;;;;;;5094186;28;20270;-47
2023/06/28 12:06:41;;;;;;;6.97;2.43;;;24.80;99.90;;;;;;5094140;28;20174;-48
2023/06/28 12:09:29;;;;;;;6.07;2.27;;;24.80;99.90;;;;;;5094491;28;20671;-47
2023/06/28 12:11:59;;;;;;;4.63;2.63;;;24.90;99.90;;;;;;5094360;28;20167;-48
2023/06/28 12:14:36;;;;;;;4.83;2.30;;;25.00;99.90;;;;;;5093824;28;20690;-48
2023/06/28 12:17:03;;;;;;;6.60;2.67;;;25.10;99.90;;;;;;5094295;28;20173;-47
2023/06/28 12:19:33;;;;;;;7.60;2.37;;;25.20;99.90;;;;;;5093902;28;20740;-48
2023/06/28 12:22:02;;;;;;;6.63;2.20;;;25.30;99.90;;;;;;5094586;28;20205;-47
2023/06/28 12:24:28;;;;;;;3.87;2.10;;;25.30;99.90;;;;;;5093827;28;20190;-46
2023/06/28 12:26:57;;;;;;;7.93;2.50;;;25.40;99.90;;;;;;5094115;28;20175;-47
2023/06/28 12:29:29;;;;;;;6.30;2.33;;;25.30;99.90;;;;;;5093953;28;20183;-48
2023/06/28 12:31:57;;;;;;;7.83;2.77;;;25.30;99.90;;;;;;5094037;28;20623;-48
2023/06/28 12:34:24;;;;;;;6.90;2.47;;;25.30;99.90;;;;;;5093929;28;20203;-48
2023/06/28 12:37:08;;;;;;;6.80;2.63;;;25.30;99.90;;;;;;5093674;28;20171;-47
2023/06/28 12:39:36;;;;;;;8.57;2.23;;;25.30;99.90;;;;;;5093630;28;20303;-48
2023/06/28 12:42:17;;;;;;;7.10;2.07;;;25.30;99.90;;;;;;5093837;28;20182;-48
2023/06/28 12:45:01;;;;;;;7.10;2.40;;;25.20;99.90;;;;;;5093513;28;20235;-47